createdAt,value
2018-01-13T00:01:13.950Z,2.60
2018-01-13T00:03:41.501Z,2.60
2018-01-13T00:06:08.966Z,2.60
2018-01-13T00:08:36.515Z,2.60
2018-01-13T00:11:04.012Z,2.70
2018-01-13T00:13:32.263Z,2.70
2018-01-13T00:15:59.747Z,2.70
2018-01-13T00:18:28.013Z,2.70
2018-01-13T00:20:55.492Z,2.70
2018-01-13T00:23:23.811Z,2.70
2018-01-13T00:25:51.285Z,2.70
2018-01-13T00:28:18.762Z,2.70
2018-01-13T00:30:46.240Z,2.70
2018-01-13T00:33:14.478Z,2.80
2018-01-13T00:35:41.965Z,2.80
2018-01-13T00:38:10.194Z,2.80
2018-01-13T00:40:37.683Z,2.80
2018-01-13T00:43:05.148Z,2.80
2018-01-13T00:45:32.609Z,2.80
2018-01-13T00:48:00.074Z,2.80
2018-01-13T00:50:28.312Z,2.70
2018-01-13T00:52:55.770Z,2.70
2018-01-13T00:55:23.230Z,2.70
2018-01-13T00:57:50.707Z,2.70
2018-01-13T01:00:18.192Z,2.70
2018-01-13T01:02:46.415Z,2.70
2018-01-13T01:05:13.970Z,2.70
2018-01-13T01:07:41.436Z,2.80
2018-01-13T01:10:08.986Z,2.70
2018-01-13T01:12:36.590Z,2.70
2018-01-13T01:15:04.097Z,2.70
2018-01-13T01:17:31.555Z,2.70
2018-01-13T01:19:59.039Z,2.60
2018-01-13T01:22:26.529Z,2.60
2018-01-13T01:24:53.995Z,2.60
2018-01-13T01:27:22.278Z,2.70
2018-01-13T01:29:49.718Z,2.70
2018-01-13T01:32:17.248Z,2.70
2018-01-13T01:34:44.710Z,2.60
2018-01-13T01:37:12.178Z,2.60
2018-01-13T01:39:39.660Z,2.60
2018-01-13T01:42:08.005Z,2.60
2018-01-13T01:44:35.505Z,2.60
2018-01-13T01:47:03.743Z,2.70
2018-01-13T01:49:31.214Z,2.70
2018-01-13T01:51:58.699Z,2.60
2018-01-13T01:54:26.937Z,2.60
2018-01-13T01:56:54.414Z,2.60
2018-01-13T01:59:21.886Z,2.60
2018-01-13T02:01:50.552Z,2.60
2018-01-13T02:04:18.020Z,2.60
2018-01-13T02:06:45.487Z,2.60
2018-01-13T02:09:13.731Z,2.60
2018-01-13T02:11:41.219Z,2.60
2018-01-13T02:14:09.455Z,2.60
2018-01-13T02:16:36.932Z,2.60
2018-01-13T02:19:04.407Z,2.60
2018-01-13T02:21:31.871Z,2.60
2018-01-13T02:24:00.128Z,2.50
2018-01-13T02:26:27.602Z,2.50
2018-01-13T02:28:55.079Z,2.50
2018-01-13T02:31:22.547Z,2.50
2018-01-13T02:33:50.017Z,2.50
2018-01-13T02:36:17.489Z,2.50
2018-01-13T02:38:44.968Z,2.60
2018-01-13T02:41:12.422Z,2.60
2018-01-13T02:43:39.915Z,2.50
2018-01-13T02:46:08.161Z,2.50
2018-01-13T02:48:35.623Z,2.50
2018-01-13T02:51:03.095Z,2.50
2018-01-13T02:53:31.328Z,2.40
2018-01-13T02:55:58.844Z,2.40
2018-01-13T02:58:27.063Z,2.50
2018-01-13T03:00:54.543Z,2.50
2018-01-13T03:03:22.007Z,2.50
2018-01-13T03:05:49.509Z,2.40
2018-01-13T03:08:16.966Z,2.50
2018-01-13T03:10:44.494Z,2.50
2018-01-13T03:13:12.748Z,2.60
2018-01-13T03:15:40.213Z,2.60
2018-01-13T03:18:07.678Z,2.60
2018-01-13T03:20:35.911Z,2.60
2018-01-13T03:23:03.382Z,2.60
2018-01-13T03:25:30.863Z,2.60
2018-01-13T03:27:58.342Z,2.60
2018-01-13T03:30:26.591Z,2.60
2018-01-13T03:32:54.126Z,2.60
2018-01-13T03:35:21.586Z,2.50
2018-01-13T03:37:49.067Z,2.60
2018-01-13T03:40:17.310Z,2.50
2018-01-13T03:42:44.790Z,2.50
2018-01-13T03:45:12.257Z,2.50
2018-01-13T03:47:39.719Z,2.50
2018-01-13T03:50:07.183Z,2.60
2018-01-13T03:52:35.410Z,2.40
2018-01-13T03:55:02.899Z,2.40
2018-01-13T03:57:30.367Z,2.50
2018-01-13T03:59:57.905Z,2.40
2018-01-13T04:02:25.466Z,2.40
2018-01-13T04:04:53.008Z,2.50
2018-01-13T04:07:20.517Z,2.40
2018-01-13T04:09:48.777Z,2.50
2018-01-13T04:12:17.771Z,2.50
2018-01-13T04:14:45.366Z,2.50
2018-01-13T04:17:13.650Z,2.60
2018-01-13T04:19:41.194Z,2.50
2018-01-13T04:22:09.431Z,2.50
2018-01-13T04:24:36.892Z,2.50
2018-01-13T04:27:04.401Z,2.50
2018-01-13T04:29:31.864Z,2.50
2018-01-13T04:31:59.367Z,2.50
2018-01-13T04:34:26.834Z,2.60
2018-01-13T04:36:54.293Z,2.60
2018-01-13T04:39:22.696Z,2.60
2018-01-13T04:41:50.923Z,2.50
2018-01-13T04:44:18.404Z,2.50
2018-01-13T04:46:45.946Z,2.50
2018-01-13T04:49:13.395Z,2.50
2018-01-13T04:51:40.877Z,2.60
2018-01-13T04:54:08.350Z,2.60
2018-01-13T04:56:36.608Z,2.60
2018-01-13T04:59:04.087Z,2.60
2018-01-13T05:01:32.318Z,2.60
2018-01-13T05:03:59.787Z,2.60
2018-01-13T05:06:27.263Z,2.50
2018-01-13T05:08:54.741Z,2.50
2018-01-13T05:11:23.002Z,2.50
2018-01-13T05:13:50.472Z,2.50
2018-01-13T05:16:18.778Z,2.60
2018-01-13T05:18:47.003Z,2.50
2018-01-13T05:21:14.478Z,2.50
2018-01-13T05:23:42.730Z,2.60
2018-01-13T05:26:10.222Z,2.60
2018-01-13T05:28:38.446Z,2.50
2018-01-13T05:31:05.938Z,2.50
2018-01-13T05:33:34.169Z,2.40
2018-01-13T05:36:01.639Z,2.40
2018-01-13T05:38:29.115Z,2.50
2018-01-13T05:40:56.599Z,2.40
2018-01-13T05:43:24.863Z,2.40
2018-01-13T05:45:52.332Z,2.40
2018-01-13T05:48:20.566Z,2.40
2018-01-13T05:50:48.063Z,2.40
2018-01-13T05:53:16.310Z,2.40
2018-01-13T05:55:43.865Z,2.40
2018-01-13T05:58:11.420Z,2.50
2018-01-13T06:00:38.893Z,2.50
2018-01-13T06:03:06.411Z,2.50
2018-01-13T06:05:33.932Z,2.50
2018-01-13T06:08:02.169Z,2.40
2018-01-13T06:10:29.645Z,2.40
2018-01-13T06:12:57.116Z,2.40
2018-01-13T06:15:25.347Z,2.40
2018-01-13T06:17:52.812Z,2.40
2018-01-13T06:20:20.280Z,2.40
2018-01-13T06:22:48.028Z,2.40
2018-01-13T06:25:15.503Z,2.40
2018-01-13T06:27:43.004Z,2.50
2018-01-13T06:30:11.234Z,2.50
2018-01-13T06:32:39.103Z,2.50
2018-01-13T06:35:06.574Z,2.60
2018-01-13T06:37:34.038Z,2.50
2018-01-13T06:40:02.279Z,2.50
2018-01-13T06:42:29.766Z,2.50
2018-01-13T06:44:57.229Z,2.50
2018-01-13T06:47:25.484Z,2.60
2018-01-13T06:49:52.948Z,2.60
2018-01-13T06:52:20.419Z,2.60
2018-01-13T06:54:48.690Z,2.60
2018-01-13T06:57:16.962Z,2.70
2018-01-13T06:59:44.556Z,2.70
2018-01-13T07:02:12.801Z,2.60
2018-01-13T07:04:40.254Z,2.60
2018-01-13T07:07:07.749Z,2.60
2018-01-13T07:09:35.977Z,2.60
2018-01-13T07:12:03.546Z,2.60
2018-01-13T07:14:31.011Z,2.60
2018-01-13T07:16:59.987Z,2.70
2018-01-13T07:19:27.576Z,2.70
2018-01-13T07:21:56.043Z,2.70
2018-01-13T07:24:23.502Z,2.70
2018-01-13T07:26:50.986Z,2.70
2018-01-13T07:29:19.223Z,2.60
2018-01-13T07:31:46.697Z,2.60
2018-01-13T07:34:14.169Z,2.70
2018-01-13T07:36:42.409Z,2.70
2018-01-13T07:39:09.877Z,2.70
2018-01-13T07:41:37.409Z,2.70
2018-01-13T07:44:05.608Z,2.60
2018-01-13T07:46:33.084Z,2.60
2018-01-13T07:49:00.544Z,2.60
2018-01-13T07:51:28.013Z,2.60
2018-01-13T07:53:56.239Z,2.70
2018-01-13T07:56:24.558Z,2.60
2018-01-13T07:58:52.025Z,2.70
2018-01-13T08:01:19.546Z,2.60
2018-01-13T08:03:47.015Z,2.70
2018-01-13T08:06:14.482Z,2.70
2018-01-13T08:08:43.503Z,2.70
2018-01-13T08:11:11.748Z,2.80
2018-01-13T08:13:39.199Z,2.80
2018-01-13T08:16:06.705Z,2.70
2018-01-13T08:18:34.954Z,2.80
2018-01-13T08:21:02.430Z,2.80
2018-01-13T08:23:30.662Z,2.80
2018-01-13T08:25:58.133Z,2.80
2018-01-13T08:28:25.619Z,2.80
2018-01-13T08:30:53.082Z,2.80
2018-01-13T08:33:21.334Z,2.90
2018-01-13T08:35:48.811Z,2.90
2018-01-13T08:38:16.274Z,2.90
2018-01-13T08:40:44.515Z,2.80
2018-01-13T08:43:11.979Z,2.80
2018-01-13T08:45:39.483Z,2.80
2018-01-13T08:48:06.966Z,2.90
2018-01-13T08:50:34.446Z,2.90
2018-01-13T08:53:01.939Z,2.90
2018-01-13T08:55:30.163Z,2.90
2018-01-13T08:57:57.643Z,2.90
2018-01-13T09:00:25.102Z,2.90
2018-01-13T09:02:52.575Z,2.90
2018-01-13T09:05:20.042Z,2.90
2018-01-13T09:07:47.528Z,2.90
2018-01-13T09:10:15.019Z,2.80
2018-01-13T09:12:42.487Z,2.90
2018-01-13T09:15:09.993Z,2.90
2018-01-13T09:17:38.236Z,2.90
2018-01-13T09:20:05.708Z,2.90
2018-01-13T09:22:33.199Z,2.90
2018-01-13T09:25:00.663Z,3.00
2018-01-13T09:27:28.150Z,2.90
2018-01-13T09:29:55.653Z,2.90
2018-01-13T09:32:23.110Z,2.90
2018-01-13T09:34:51.383Z,3.00
2018-01-13T09:37:19.622Z,2.90
2018-01-13T09:39:47.082Z,2.90
2018-01-13T09:42:14.558Z,3.00
2018-01-13T09:44:42.034Z,3.00
2018-01-13T09:47:09.502Z,3.00
2018-01-13T09:49:36.961Z,3.10
2018-01-13T09:52:05.235Z,3.00
2018-01-13T09:54:33.506Z,3.00
2018-01-13T09:57:01.743Z,2.90
2018-01-13T09:59:29.227Z,2.90
2018-01-13T10:01:58.232Z,3.00
2018-01-13T10:04:25.754Z,3.00
2018-01-13T10:06:53.228Z,3.00
2018-01-13T10:09:20.714Z,3.10
2018-01-13T10:11:48.171Z,3.10
2018-01-13T10:14:16.402Z,3.00
2018-01-13T10:16:43.871Z,3.00
2018-01-13T10:19:11.342Z,3.00
2018-01-13T10:21:38.801Z,3.00
2018-01-13T10:24:06.270Z,3.00
2018-01-13T10:26:33.747Z,3.00
2018-01-13T10:29:01.970Z,3.00
2018-01-13T10:31:29.500Z,3.00
2018-01-13T10:33:57.734Z,3.10
2018-01-13T10:36:25.214Z,3.10
2018-01-13T10:38:53.467Z,3.20
2018-01-13T10:41:20.930Z,3.20
2018-01-13T10:43:48.402Z,3.20
2018-01-13T10:46:15.866Z,3.10
2018-01-13T10:48:44.110Z,3.10
2018-01-13T10:51:11.619Z,3.10
2018-01-13T10:53:39.849Z,3.10
2018-01-13T10:56:07.326Z,3.10
2018-01-13T10:58:34.823Z,3.10
2018-01-13T11:01:02.327Z,3.10
2018-01-13T11:03:29.810Z,3.10
2018-01-13T11:05:58.044Z,3.10
2018-01-13T11:08:25.584Z,3.10
2018-01-13T11:10:53.088Z,3.20
2018-01-13T11:13:20.556Z,3.10
2018-01-13T11:15:48.138Z,3.10
2018-01-13T11:18:16.425Z,3.10
2018-01-13T11:20:44.654Z,3.10
2018-01-13T11:23:12.118Z,3.10
2018-01-13T11:25:39.708Z,3.00
2018-01-13T11:28:07.930Z,3.10
2018-01-13T11:30:35.399Z,3.10
2018-01-13T11:33:02.874Z,3.10
2018-01-13T11:35:30.343Z,3.00
2018-01-13T11:37:58.583Z,2.90
2018-01-13T11:40:26.051Z,2.90
2018-01-13T11:42:53.535Z,2.80
2018-01-13T11:45:20.991Z,2.90
2018-01-13T11:47:49.263Z,2.80
2018-01-13T11:50:16.730Z,2.80
2018-01-13T11:52:44.962Z,2.80
2018-01-13T11:55:12.443Z,2.80
2018-01-13T11:57:39.923Z,2.80
2018-01-13T12:00:08.208Z,3.00
2018-01-13T12:02:36.594Z,2.90
2018-01-13T12:05:04.840Z,2.90
2018-01-13T12:07:32.372Z,2.90
2018-01-13T12:09:59.841Z,2.90
2018-01-13T12:12:27.356Z,2.90
2018-01-13T12:14:54.823Z,2.90
2018-01-13T12:17:22.295Z,2.80
2018-01-13T12:19:49.763Z,2.70
2018-01-13T12:22:17.258Z,2.80
2018-01-13T12:24:45.503Z,2.80
2018-01-13T12:27:12.979Z,2.80
2018-01-13T12:29:40.471Z,2.70
2018-01-13T12:32:07.942Z,2.70
2018-01-13T12:34:35.423Z,2.70
2018-01-13T12:37:02.879Z,2.70
2018-01-13T12:39:30.351Z,2.70
2018-01-13T12:41:57.823Z,2.80
2018-01-13T12:44:25.314Z,2.70
2018-01-13T12:46:52.842Z,2.70
2018-01-13T12:49:20.309Z,2.60
2018-01-13T12:51:48.543Z,2.60
2018-01-13T12:54:16.052Z,2.60
2018-01-13T12:56:44.303Z,2.70
2018-01-13T12:59:11.779Z,2.70
2018-01-13T13:01:40.027Z,2.70
2018-01-13T13:04:07.499Z,2.70
2018-01-13T13:06:34.979Z,2.70
2018-01-13T13:09:03.214Z,2.60
2018-01-13T13:11:30.680Z,2.60
2018-01-13T13:13:58.159Z,2.60
2018-01-13T13:16:26.424Z,2.60
2018-01-13T13:18:53.898Z,2.50
2018-01-13T13:21:22.144Z,2.60
2018-01-13T13:23:49.619Z,2.60
2018-01-13T13:26:17.085Z,2.50
2018-01-13T13:28:45.332Z,2.40
2018-01-13T13:31:12.794Z,2.40
2018-01-13T13:33:40.273Z,2.40
2018-01-13T13:36:08.791Z,2.40
2018-01-13T13:38:36.634Z,2.40
2018-01-13T13:41:05.552Z,2.40
2018-01-13T13:43:34.631Z,2.40
2018-01-13T13:46:02.377Z,2.40
2018-01-13T13:48:30.610Z,2.40
2018-01-13T13:50:58.402Z,2.40
2018-01-13T13:53:25.931Z,2.50
2018-01-13T13:55:53.466Z,2.40
2018-01-13T13:58:21.202Z,2.50
2018-01-13T14:00:49.435Z,2.50
2018-01-13T14:03:16.903Z,2.50
2018-01-13T14:05:44.492Z,2.50
2018-01-13T14:08:12.035Z,2.60
2018-01-13T14:10:39.595Z,2.50
2018-01-13T14:13:07.052Z,2.60
2018-01-13T14:15:34.541Z,2.50
2018-01-13T14:18:02.051Z,2.50
2018-01-13T14:20:29.523Z,2.40
2018-01-13T14:22:56.981Z,2.30
2018-01-13T14:25:24.475Z,2.40
2018-01-13T14:27:51.943Z,2.30
2018-01-13T14:30:19.420Z,2.30
2018-01-13T14:32:46.874Z,2.30
2018-01-13T14:35:14.420Z,2.20
2018-01-13T14:37:41.898Z,2.20
2018-01-13T14:40:09.372Z,2.20
2018-01-13T14:42:36.839Z,2.20
2018-01-13T14:45:04.294Z,2.20
2018-01-13T14:47:31.762Z,2.10
2018-01-13T14:49:59.228Z,2.10
2018-01-13T14:52:27.467Z,2.10
2018-01-13T14:54:54.959Z,2.10
2018-01-13T14:57:23.240Z,2.30
2018-01-13T14:59:50.728Z,2.20
2018-01-13T15:02:18.202Z,2.20
2018-01-13T15:04:45.668Z,2.20
2018-01-13T15:07:13.150Z,2.20
2018-01-13T15:09:40.635Z,2.20
2018-01-13T15:12:08.872Z,2.10
2018-01-13T15:14:36.343Z,2.10
2018-01-13T15:17:03.815Z,2.10
2018-01-13T15:19:32.038Z,2.10
2018-01-13T15:21:59.555Z,2.10
2018-01-13T15:24:27.810Z,2.00
2018-01-13T15:26:55.295Z,2.00
2018-01-13T15:29:23.522Z,1.90
2018-01-13T15:31:50.995Z,1.90
2018-01-13T15:34:18.491Z,2.00
2018-01-13T15:36:46.729Z,2.00
2018-01-13T15:39:14.192Z,2.00
2018-01-13T15:41:41.667Z,2.00
2018-01-13T15:44:09.893Z,1.90
2018-01-13T15:46:37.355Z,1.90
2018-01-13T15:49:04.823Z,1.90
2018-01-13T15:51:32.311Z,1.90
2018-01-13T15:53:59.891Z,1.80
2018-01-13T15:56:28.130Z,1.70
2018-01-13T15:58:55.588Z,1.70
2018-01-13T16:01:23.054Z,1.70
2018-01-13T16:03:50.519Z,1.60
2018-01-13T16:06:18.783Z,1.60
2018-01-13T16:08:46.248Z,1.60
2018-01-13T16:11:13.708Z,1.60
2018-01-13T16:13:41.178Z,1.50
2018-01-13T16:16:09.408Z,1.40
2018-01-13T16:18:36.887Z,1.40
2018-01-13T16:21:04.367Z,1.50
2018-01-13T16:23:32.603Z,1.40
2018-01-13T16:26:00.082Z,1.40
2018-01-13T16:28:27.548Z,1.30
2018-01-13T16:30:55.016Z,1.30
2018-01-13T16:33:23.290Z,1.30
2018-01-13T16:35:50.746Z,1.30
2018-01-13T16:38:18.991Z,1.30
2018-01-13T16:40:46.516Z,1.30
2018-01-13T16:43:14.000Z,1.30
2018-01-13T16:45:41.514Z,1.30
2018-01-13T16:48:09.747Z,1.20
2018-01-13T16:50:37.231Z,1.20
2018-01-13T16:53:04.735Z,1.20
2018-01-13T16:55:32.196Z,1.30
2018-01-13T16:57:59.667Z,1.30
2018-01-13T17:00:27.177Z,1.20
2018-01-13T17:02:55.405Z,1.20
2018-01-13T17:05:22.867Z,1.20
2018-01-13T17:07:50.343Z,1.20
2018-01-13T17:10:17.806Z,1.10
2018-01-13T17:12:45.318Z,1.10
2018-01-13T17:15:12.788Z,1.10
2018-01-13T17:17:40.275Z,1.10
2018-01-13T17:20:07.759Z,1.10
2018-01-13T17:22:36.036Z,1.10
2018-01-13T17:25:04.319Z,1.10
2018-01-13T17:27:32.569Z,1.10
2018-01-13T17:30:00.082Z,1.10
2018-01-13T17:32:27.547Z,1.10
2018-01-13T17:34:55.016Z,1.00
2018-01-13T17:37:22.522Z,1.10
2018-01-13T17:39:49.978Z,1.00
2018-01-13T17:42:18.222Z,1.00
2018-01-13T17:44:45.734Z,1.00
2018-01-13T17:47:13.986Z,1.00
2018-01-13T17:49:41.466Z,1.10
2018-01-13T17:52:09.698Z,1.00
2018-01-13T17:54:37.179Z,1.00
2018-01-13T17:57:04.626Z,1.00
2018-01-13T17:59:32.132Z,1.10
2018-01-13T18:01:59.705Z,1.10
2018-01-13T18:04:27.208Z,1.20
2018-01-13T18:06:54.827Z,1.10
2018-01-13T18:09:22.294Z,1.10
2018-01-13T18:11:50.490Z,1.00
2018-01-13T18:14:17.975Z,1.00
2018-01-13T18:16:45.427Z,1.00
2018-01-13T18:19:12.965Z,1.00
2018-01-13T18:21:40.442Z,1.10
2018-01-13T18:24:07.921Z,1.00
2018-01-13T18:26:36.154Z,0.80
2018-01-13T18:29:03.623Z,0.80
2018-01-13T18:31:31.094Z,0.80
2018-01-13T18:33:58.620Z,0.90
2018-01-13T18:36:26.134Z,0.90
2018-01-13T18:38:54.402Z,0.80
2018-01-13T18:41:21.872Z,0.80
2018-01-13T18:43:50.100Z,0.90
2018-01-13T18:46:17.565Z,0.90
2018-01-13T18:48:45.034Z,0.80
2018-01-13T18:51:12.507Z,0.80
2018-01-13T18:53:39.986Z,0.80
2018-01-13T18:56:08.257Z,0.80
2018-01-13T18:58:36.525Z,0.80
2018-01-13T19:01:04.050Z,0.80
2018-01-13T19:03:31.510Z,0.80
2018-01-13T19:05:59.050Z,0.80
2018-01-13T19:08:26.558Z,0.90
2018-01-13T19:10:54.034Z,0.80
2018-01-13T19:13:22.308Z,0.70
2018-01-13T19:15:50.600Z,0.70
2018-01-13T19:18:18.113Z,0.60
2018-01-13T19:20:45.643Z,0.60
2018-01-13T19:23:13.181Z,0.60
2018-01-13T19:25:40.662Z,0.60
2018-01-13T19:28:08.172Z,0.60
2018-01-13T19:30:35.668Z,0.60
2018-01-13T19:33:03.141Z,0.50
2018-01-13T19:35:30.662Z,0.60
2018-01-13T19:37:58.915Z,0.60
2018-01-13T19:40:26.405Z,0.60
2018-01-13T19:42:54.665Z,0.70
2018-01-13T19:45:22.955Z,0.60
2018-01-13T19:47:51.283Z,0.60
2018-01-13T19:50:18.853Z,0.60
2018-01-13T19:52:46.316Z,0.50
2018-01-13T19:55:13.846Z,0.60
2018-01-13T19:57:41.341Z,0.60
2018-01-13T20:00:08.862Z,0.60
2018-01-13T20:02:36.365Z,0.60
2018-01-13T20:05:03.879Z,0.60
2018-01-13T20:07:31.356Z,0.50
2018-01-13T20:09:58.901Z,0.50
2018-01-13T20:12:26.380Z,0.50
2018-01-13T20:14:53.889Z,0.50
2018-01-13T20:17:21.428Z,0.60
2018-01-13T20:19:49.755Z,0.60
2018-01-13T20:22:17.258Z,0.60
2018-01-13T20:24:44.719Z,0.60
2018-01-13T20:27:12.210Z,0.50
2018-01-13T20:29:39.721Z,0.60
2018-01-13T20:32:07.175Z,0.50
2018-01-13T20:34:34.699Z,0.50
2018-01-13T20:37:02.226Z,0.50
2018-01-13T20:39:30.500Z,0.60
2018-01-13T20:41:58.775Z,0.60
2018-01-13T20:44:26.287Z,0.50
2018-01-13T20:46:53.800Z,0.60
2018-01-13T20:49:22.079Z,0.50
2018-01-13T20:51:50.302Z,0.50
2018-01-13T20:54:17.808Z,0.50
2018-01-13T20:56:46.086Z,0.50
2018-01-13T20:59:14.379Z,0.60
2018-01-13T21:01:41.844Z,0.50
2018-01-13T21:04:09.373Z,0.50
2018-01-13T21:06:36.971Z,0.50
2018-01-13T21:09:04.479Z,0.50
2018-01-13T21:11:32.040Z,0.60
2018-01-13T21:13:59.502Z,0.60
2018-01-13T21:16:27.023Z,0.60
2018-01-13T21:18:54.530Z,0.60
2018-01-13T21:21:22.810Z,0.60
2018-01-13T21:23:51.127Z,0.60
2018-01-13T21:26:18.694Z,0.60
2018-01-13T21:28:46.207Z,0.60
2018-01-13T21:31:14.543Z,0.60
2018-01-13T21:33:42.056Z,0.60
2018-01-13T21:36:09.573Z,0.50
2018-01-13T21:38:37.035Z,0.50
2018-01-13T21:41:04.641Z,0.50
2018-01-13T21:43:32.150Z,0.50
2018-01-13T21:45:59.667Z,0.50
2018-01-13T21:48:27.170Z,0.50
2018-01-13T21:50:54.688Z,0.50
2018-01-13T21:53:22.198Z,0.50
2018-01-13T21:55:49.718Z,0.60
2018-01-13T21:58:17.181Z,0.70
2018-01-13T22:00:44.822Z,0.70
2018-01-13T22:03:12.334Z,0.70
2018-01-13T22:05:39.887Z,0.60
2018-01-13T22:08:07.363Z,0.50
2018-01-13T22:10:35.660Z,0.60
2018-01-13T22:13:03.174Z,0.50
2018-01-13T22:15:30.647Z,0.60
2018-01-13T22:17:58.939Z,0.70
2018-01-13T22:20:27.171Z,0.70
2018-01-13T22:22:54.631Z,0.60
2018-01-13T22:25:22.103Z,0.60
2018-01-13T22:27:49.618Z,0.60
2018-01-13T22:30:17.079Z,0.60
2018-01-13T22:32:44.609Z,0.70
2018-01-13T22:35:12.892Z,0.70
2018-01-13T22:37:40.417Z,0.70
2018-01-13T22:40:07.933Z,0.50
2018-01-13T22:42:35.433Z,0.60
2018-01-13T22:45:02.890Z,0.60
2018-01-13T22:47:30.405Z,0.50
2018-01-13T22:49:57.925Z,0.50
2018-01-13T22:52:26.143Z,0.50
2018-01-13T22:54:53.890Z,0.40
2018-01-13T22:57:21.394Z,0.40
2018-01-13T22:59:48.902Z,0.50
2018-01-13T23:02:16.411Z,0.40
2018-01-13T23:04:43.912Z,0.30
2018-01-13T23:07:12.186Z,0.30
2018-01-13T23:09:40.448Z,0.30
2018-01-13T23:12:08.730Z,0.30
2018-01-13T23:14:36.989Z,0.20
2018-01-13T23:17:04.497Z,0.20
2018-01-13T23:19:32.003Z,0.20
2018-01-13T23:21:59.506Z,0.20
2018-01-13T23:24:27.016Z,0.20
2018-01-13T23:26:54.491Z,0.30
2018-01-13T23:29:22.722Z,0.30
2018-01-13T23:31:50.249Z,0.30
2018-01-13T23:34:17.747Z,0.30
2018-01-13T23:36:45.249Z,0.20
2018-01-13T23:39:13.508Z,0.20
2018-01-13T23:41:40.974Z,0.20
2018-01-13T23:44:09.248Z,0.30
2018-01-13T23:46:36.753Z,0.30
2018-01-13T23:49:04.257Z,0.30
2018-01-13T23:51:31.723Z,0.30
2018-01-13T23:53:59.989Z,0.20
2018-01-13T23:56:27.447Z,0.20
2018-01-13T23:58:54.902Z,0.20
